LFBE 181700Z AUTO 30014KT CAVOK 26/14 Q1016 NOSIG

ElémentsDécodage
LFBE Station météo située sur l'aérodrome de BERGERAC Roumanière
181700Z émis le 18 du mois à 17h00 UTC
AUTO Bulletin édité par un automate
30014KT vent du 300°, 14 noeuds
CAVOK Ceiling And Visibility OK
- Visibilité de 10 Km ou plus
- Pas de nuage au-dessous de 1500m ou au-dessous de l'altitude minimale du secteur la plus élevée (si>1500m) et absence de CB
- pas de temps présent significatif
26/14 température 26°C, point de rosée 14°C
 soit une humidité relative de 48%
Q1016 la pression au niveau de la mer (QNH) est de 1016 hPa
NOSIG Pas de changement significatif prévu au cours des deux heures suivant l'heure de l'observation